Main page
METAR-TAF:

METAR-TAF

Airports :

Odessa International Airport

Odessa, Ukraine

latitude: 46-26N, longitude: 030-46E, elevation: 42 m

Current weather observation

The report was made 7 minutes ago, at 17:00 UTC
Calm wind
Temperature 14°C
Humidity 72%
Pressure 1018 hPa
Visibility: 4000 m
mist

METAR: UKOO 181700Z 00000MPS 4000 BR NSC 14/09 Q1018 R34/090060 NOSIG

Time: 20:07 (17:07 UTC)

Forecast

The report was made 6 hours and 3 minutes ago, at 11:04 UTC
Forecast valid from 18 at 12 UTC to 19 at 12 UTC
Wind 12 kt from the East with gusts up to 23 kt
Visibility: 6000 m
Scattered clouds at a height of 700 ft
Becoming
from 18 at 16 UTC to 18 at 17 UTC
Wind 6 kt from the North/Northeast
Visibility: 2100 m
mist, smoke

TAF: UKOO 181104Z 1812/1912 08006G12MPS 6000 SCT007 BECMG 1816/1817 03003MPS 2100 BR FU

Weather observations and forecasts of more than 4000 airports (METAR and TAF reports).

The available stations are represented by yellow and red dots on the map.

Hover mouse over dot to see the name of the station.

Then click to see weather observations and forecasts.

To change the map : click on the green buttons with a black cross to zoom in, on the green button with a dash to zoom out, or on the green arrows for adjacent maps.


METAR-TAF: